Time;durP1;ratioP1;P1;durP2;ratioP2;P2;SDS_P1;SDS_P2;PMS_P1;PMS_P2;Temp;Humidity;BMP_temperature;BMP_pressure;BME280_temperature;BME280_humidity;BME280_pressure;Samples;Min_cycle;Max_cycle;Signal;HPM_P1;HPM_P2
2023/08/13 00:01:13;;;;;;;;;;;25.90;51.70;;;24.95;50.21;101194.28;12245696;19;19925;-88
2023/08/13 00:05:15;;;;;;;;;;;25.80;51.70;;;25.20;50.28;101237.09;12243847;19;20311;-88
2023/08/13 00:09:16;;;;;;;;;;;25.80;51.70;;;25.22;50.05;101259.97;12244227;19;19914;-88
2023/08/13 00:13:18;;;;;;;;;;;25.70;51.60;;;25.04;50.44;101232.53;12246120;19;19982;-88
2023/08/13 00:17:19;;;;;;;;;;;25.70;51.60;;;25.01;50.69;101239.06;12244419;19;19926;-88
2023/08/13 00:21:21;;;;;;;;;;;25.60;51.60;;;24.95;50.22;101235.22;12256226;19;20322;-88
2023/08/13 00:25:23;;;;;;;;;;;25.60;51.70;;;25.00;50.14;101258.75;12256273;19;20322;-88
2023/08/13 00:29:24;;;;;;;;;;;25.60;51.70;;;24.89;50.15;101256.41;12256437;19;19914;-88
2023/08/13 00:33:26;;;;;;;;;;;25.50;51.60;;;24.88;50.45;101260.09;12256848;19;20342;-88
2023/08/13 00:37:27;;;;;;;;;;;25.50;51.70;;;24.76;50.46;101248.03;12251760;19;19923;-88
2023/08/13 00:41:29;;;;;;;;;;;25.50;51.80;;;24.83;50.59;101265.91;12255790;19;20358;-88
2023/08/13 00:45:32;;;;;;;;;;;25.40;51.70;;;24.82;50.43;101269.59;12251813;19;19974;-88
2023/08/13 00:49:34;;;;;;;;;;;25.40;51.70;;;24.76;50.83;101269.41;12253370;19;19922;-88
2023/08/13 00:53:48;;;;;;;;;;;25.30;51.70;;;24.68;50.72;101263.06;12254192;19;19927;-88
2023/08/13 00:57:49;;;;;;;;;;;25.30;51.70;;;24.60;50.57;101256.84;12250482;19;19919;-88
2023/08/13 01:01:52;;;;;;;;;;;25.30;51.80;;;24.41;50.61;101245.44;12253541;19;19911;-88
2023/08/13 01:06:03;;;;;;;;;;;25.20;51.80;;;24.60;50.51;101291.56;12250342;19;20012;-88
2023/08/13 01:10:34;;;;;;;;;;;25.20;51.90;;;24.61;50.97;101307.44;12252994;19;19935;-88
2023/08/13 01:14:43;;;;;;;;;;;25.10;51.80;;;24.39;50.72;101286.66;12253469;19;19922;-88
2023/08/13 01:18:46;;;;;;;;;;;25.10;51.90;;;24.33;50.71;101276.59;12248763;19;19927;-88
2023/08/13 01:22:50;;;;;;;;;;;25.10;51.90;;;24.45;50.95;101310.06;12251185;19;19938;-88
2023/08/13 01:26:58;;;;;;;;;;;25.00;51.90;;;24.43;50.58;101322.69;12248171;19;19925;-88
2023/08/13 01:31:11;;;;;;;;;;;24.90;51.90;;;24.28;51.01;101291.28;12249164;19;19947;-88
2023/08/13 01:35:13;;;;;;;;;;;24.90;52.00;;;24.25;50.91;101298.78;12251929;19;19919;-88
2023/08/13 01:39:15;;;;;;;;;;;24.90;52.00;;;24.27;51.27;101313.59;12250455;19;19982;-88
2023/08/13 01:43:17;;;;;;;;;;;24.90;52.10;;;24.28;51.05;101320.63;12251774;19;19931;-88
2023/08/13 01:47:19;;;;;;;;;;;24.90;52.10;;;24.25;50.78;101322.81;12247807;19;20255;-88
2023/08/13 01:51:21;;;;;;;;;;;24.90;52.10;;;24.22;50.74;101325.75;12252264;19;19915;-88
2023/08/13 01:55:23;;;;;;;;;;;24.80;52.10;;;24.21;51.30;101334.78;12243880;19;19925;-88
2023/08/13 01:59:24;;;;;;;;;;;24.80;52.10;;;24.15;51.27;101333.59;12250894;19;19919;-88
2023/08/13 02:03:26;;;;;;;;;;;24.80;52.20;;;24.19;50.93;101345.59;12248837;19;20231;-88
2023/08/13 02:07:27;;;;;;;;;;;24.80;52.30;;;24.07;50.99;101328.19;12250149;19;19922;-88
2023/08/13 02:11:30;;;;;;;;;;;24.70;52.30;;;24.05;51.20;101333.69;12249344;19;19923;-88
2023/08/13 02:15:31;;;;;;;;;;;24.70;52.30;;;24.10;51.08;101340.41;12248031;19;19929;-88
2023/08/13 02:19:32;;;;;;;;;;;24.70;52.40;;;24.05;50.96;101332.84;12249291;19;19918;-88
2023/08/13 02:23:37;;;;;;;;;;;24.70;52.50;;;23.81;51.22;101291.69;12249340;19;19922;-88
2023/08/13 02:27:38;;;;;;;;;;;24.70;52.50;;;23.89;51.47;101314.91;12247904;19;19994;-88
2023/08/13 02:31:40;;;;;;;;;;;24.70;52.50;;;24.08;51.22;101356.56;12247452;19;19936;-87
2023/08/13 02:35:41;;;;;;;;;;;24.70;52.60;;;23.92;51.27;101338.59;12246784;19;20259;-87
2023/08/13 02:39:42;;;;;;;;;;;24.70;52.60;;;24.11;51.19;101372.25;12246548;19;19929;-87
2023/08/13 02:43:55;;;;;;;;;;;24.70;52.60;;;24.04;51.21;101355.22;12245766;19;19934;-87
2023/08/13 02:47:57;;;;;;;;;;;24.70;52.60;;;24.08;51.63;101368.06;12245964;19;19919;-87
2023/08/13 02:51:59;;;;;;;;;;;24.70;52.70;;;24.06;51.34;101361.19;12247972;19;19915;-87
2023/08/13 02:56:00;;;;;;;;;;;24.70;52.70;;;24.10;51.39;101377.75;12247126;19;19915;-87
2023/08/13 03:00:02;;;;;;;;;;;24.70;52.70;;;24.06;51.58;101374.53;12245724;19;19982;-87
2023/08/13 03:04:05;;;;;;;;;;;24.70;52.70;;;23.98;51.75;101364.69;12244688;19;19921;-87
2023/08/13 03:08:06;;;;;;;;;;;24.70;52.80;;;23.97;51.73;101362.16;12244502;19;19911;-87
2023/08/13 03:12:08;;;;;;;;;;;24.70;52.70;;;23.79;51.66;101339.03;12245287;19;19911;-87
2023/08/13 03:16:10;;;;;;;;;;;24.70;52.80;;;23.74;51.97;101333.34;12244643;19;19912;-87
2023/08/13 03:20:12;;;;;;;;;;;24.70;52.80;;;23.99;51.43;101370.84;12245273;19;19921;-87
2023/08/13 03:24:15;;;;;;;;;;;24.70;52.70;;;24.02;51.75;101374.03;12244948;19;19914;-87
2023/08/13 03:28:17;;;;;;;;;;;24.70;52.70;;;23.90;51.70;101355.75;12242214;19;19931;-87
2023/08/13 03:32:19;;;;;;;;;;;24.60;52.60;;;23.85;51.51;101358.91;12246637;19;20022;-87
2023/08/13 03:36:22;;;;;;;;;;;24.60;52.60;;;23.95;52.04;101382.81;12244999;19;20266;-88
2023/08/13 03:40:24;;;;;;;;;;;24.60;52.50;;;23.81;51.77;101370.88;12246240;19;19923;-87
2023/08/13 03:44:26;;;;;;;;;;;24.60;52.50;;;23.76;51.66;101368.69;12244359;19;19923;-87
2023/08/13 03:48:27;;;;;;;;;;;24.60;52.90;;;23.79;51.85;101389.72;12242947;19;20268;-87
2023/08/13 03:52:29;;;;;;;;;;;24.50;52.50;;;23.80;51.65;101396.72;12247422;19;19934;-87
2023/08/13 03:56:31;;;;;;;;;;;24.50;52.60;;;23.80;51.69;101399.38;12255615;19;19989;-87
2023/08/13 04:00:34;;;;;;;;;;;24.40;52.60;;;23.74;51.89;101402.69;12255772;19;19914;-87
2023/08/13 04:04:36;;;;;;;;;;;24.40;52.60;;;23.72;52.20;101396.66;12253939;19;20257;-87
2023/08/13 04:08:38;;;;;;;;;;;24.40;52.70;;;23.70;51.84;101406.59;12251245;19;19974;-87
2023/08/13 04:12:39;;;;;;;;;;;24.40;52.70;;;23.62;52.17;101393.19;12255551;19;19914;-88
2023/08/13 04:16:42;;;;;;;;;;;24.40;52.70;;;23.49;52.40;101388.25;12250023;19;20341;-88
2023/08/13 04:20:43;;;;;;;;;;;24.30;52.70;;;23.39;51.83;101371.50;12252753;19;19919;-87
2023/08/13 04:24:50;;;;;;;;;;;24.30;52.70;;;23.54;52.22;101409.13;12252676;19;20266;-87
2023/08/13 04:28:58;;;;;;;;;;;24.30;52.70;;;23.61;52.21;101434.19;12254907;19;19978;-87
2023/08/13 04:32:59;;;;;;;;;;;24.30;52.70;;;23.39;52.13;101396.34;12254378;19;20256;-87
2023/08/13 04:37:04;;;;;;;;;;;24.30;52.80;;;23.52;51.98;101419.09;12251859;19;19919;-87
2023/08/13 04:41:07;;;;;;;;;;;24.30;52.80;;;23.49;52.33;101424.75;12255280;19;19974;-87
2023/08/13 04:45:15;;;;;;;;;;;24.20;52.70;;;23.44;52.21;101411.88;12250901;19;19922;-88
2023/08/13 04:49:18;;;;;;;;;;;24.20;52.70;;;23.51;52.42;101433.44;12254164;19;19978;-87
2023/08/13 04:53:20;;;;;;;;;;;24.20;52.70;;;23.47;52.44;101432.06;12253743;19;19918;-87
2023/08/13 04:57:22;;;;;;;;;;;24.20;52.80;;;23.44;52.32;101429.69;12247503;19;19919;-87
2023/08/13 05:01:23;;;;;;;;;;;24.10;52.70;;;23.40;52.19;101422.00;12248787;19;20317;-87
2023/08/13 05:05:29;;;;;;;;;;;24.10;52.80;;;23.38;52.54;101426.63;12250528;19;19922;-87
2023/08/13 05:09:31;;;;;;;;;;;24.10;52.90;;;23.33;52.19;101417.41;12250111;19;19911;-87
2023/08/13 05:13:33;;;;;;;;;;;24.10;52.90;;;23.31;52.42;101416.75;12250968;19;19918;-87
2023/08/13 05:17:35;;;;;;;;;;;24.10;53.00;;;23.39;52.57;101439.00;12247594;19;20359;-87
2023/08/13 05:21:37;;;;;;;;;;;24.10;53.00;;;23.38;52.62;101437.28;12251408;19;19931;-87
2023/08/13 05:25:39;;;;;;;;;;;24.10;53.20;;;23.31;52.69;101441.56;12251295;19;19922;-87
2023/08/13 05:29:43;;;;;;;;;;;24.10;53.20;;;23.37;52.18;101446.28;12251893;19;19925;-87
2023/08/13 05:33:44;;;;;;;;;;;24.10;53.30;;;23.40;52.66;101434.50;12251203;19;19928;-87
2023/08/13 05:37:47;;;;;;;;;;;24.10;53.40;;;23.48;52.19;101452.41;12248922;19;20309;-87
2023/08/13 05:41:49;;;;;;;;;;;24.20;53.50;;;23.44;52.47;101453.69;12252815;19;19929;-87
2023/08/13 05:45:51;;;;;;;;;;;24.20;53.50;;;23.41;52.50;101450.34;12248961;19;19929;-87
2023/08/13 05:49:53;;;;;;;;;;;24.20;53.50;;;23.34;52.72;101443.94;12250728;19;19911;-87
2023/08/13 05:53:55;;;;;;;;;;;24.20;53.50;;;23.41;52.85;101453.00;12252671;19;19915;-87
2023/08/13 05:57:56;;;;;;;;;;;24.20;53.60;;;23.44;52.48;101459.00;12249416;19;19950;-87
2023/08/13 06:01:58;;;;;;;;;;;24.20;53.70;;;23.56;52.96;101479.97;12243770;19;19919;-87
2023/08/13 06:06:00;;;;;;;;;;;24.20;53.80;;;23.35;53.16;101434.09;12247054;19;19932;-87
2023/08/13 06:10:03;;;;;;;;;;;24.30;53.90;;;23.60;53.13;101457.38;12248010;19;19930;-88
2023/08/13 06:14:05;;;;;;;;;;;24.30;54.10;;;23.71;52.78;101456.34;12249266;19;19930;-87
2023/08/13 06:18:07;;;;;;;;;;;24.50;54.20;;;23.80;52.79;101468.75;12243721;19;20242;-87
2023/08/13 06:22:10;;;;;;;;;;;24.60;54.10;;;23.93;53.01;101479.03;12247475;19;19919;-88
2023/08/13 06:26:11;;;;;;;;;;;24.70;53.70;;;24.01;53.01;101483.59;12245122;19;19929;-85
2023/08/13 06:30:12;;;;;;;;;;;24.80;53.60;;;24.04;53.05;101489.47;12247701;19;20430;-88
2023/08/13 06:34:14;;;;;;;;;;;24.90;53.60;;;24.01;53.16;101467.59;12247511;19;19915;-86
2023/08/13 06:38:17;;;;;;;;;;;24.90;53.40;;;24.09;53.16;101483.66;12242740;19;19982;-86
2023/08/13 06:42:18;;;;;;;;;;;24.90;53.30;;;24.10;52.72;101487.19;12249048;19;19955;-86
2023/08/13 06:46:21;;;;;;;;;;;24.90;53.50;;;24.02;53.03;101485.28;12242900;19;19919;-87
2023/08/13 06:50:23;;;;;;;;;;;24.90;53.50;;;24.04;53.09;101493.97;12246850;19;19929;-87
2023/08/13 06:54:24;;;;;;;;;;;24.90;53.50;;;23.98;53.17;101479.41;12248152;19;19923;-86
2023/08/13 06:58:26;;;;;;;;;;;24.90;53.50;;;23.98;53.08;101486.56;12245092;19;19914;-87
2023/08/13 07:02:28;;;;;;;;;;;24.90;53.80;;;24.00;53.05;101485.41;12245261;19;19943;-86
2023/08/13 07:06:29;;;;;;;;;;;24.90;53.50;;;23.88;52.81;101453.81;12243860;19;19923;-86
2023/08/13 07:10:32;;;;;;;;;;;25.00;53.80;;;24.06;53.13;101481.28;12245556;19;19919;-85
2023/08/13 07:14:34;;;;;;;;;;;25.00;53.40;;;24.20;52.89;101502.09;12247972;19;20317;-86
2023/08/13 07:18:36;;;;;;;;;;;25.00;53.40;;;24.13;53.32;101484.19;12241766;19;19911;-86
2023/08/13 07:22:37;;;;;;;;;;;25.00;53.20;;;24.23;52.81;101496.44;12245527;19;19943;-85
2023/08/13 07:26:39;;;;;;;;;;;25.10;53.20;;;24.18;53.31;101484.56;12241151;19;19919;-86
2023/08/13 07:30:41;;;;;;;;;;;25.10;53.00;;;24.22;53.33;101488.59;12256859;19;19925;-85
2023/08/13 07:34:43;;;;;;;;;;;25.10;53.20;;;24.32;53.20;101494.66;12255139;19;20397;-86
2023/08/13 07:38:44;;;;;;;;;;;25.20;53.20;;;24.45;53.11;101491.63;12250864;19;20001;-84
2023/08/13 07:42:45;;;;;;;;;;;25.30;53.40;;;24.37;53.13;101462.19;12259146;19;19919;-85
2023/08/13 07:46:50;;;;;;;;;;;25.40;53.40;;;24.70;53.56;101500.63;12253070;19;19923;-85
2023/08/13 07:50:52;;;;;;;;;;;25.50;53.50;;;24.84;53.54;101492.00;12254839;19;19918;-85
2023/08/13 07:54:54;;;;;;;;;;;25.70;53.70;;;24.93;53.47;101487.56;12257117;19;20234;-84
2023/08/13 07:58:55;;;;;;;;;;;25.80;53.10;;;25.01;53.72;101486.78;12255944;19;19919;-84
2023/08/13 08:02:57;;;;;;;;;;;26.00;53.20;;;25.20;53.30;101491.88;12255897;19;20367;-85
2023/08/13 08:06:59;;;;;;;;;;;26.10;52.70;;;25.30;53.24;101500.63;12252841;19;19933;-85
2023/08/13 08:11:00;;;;;;;;;;;26.30;52.70;;;25.49;53.70;101509.34;12255071;19;20280;-85
2023/08/13 08:15:03;;;;;;;;;;;26.40;52.80;;;25.58;53.37;101503.84;12254935;19;19918;-85
2023/08/13 08:19:04;;;;;;;;;;;26.60;53.00;;;25.73;53.44;101501.34;12253331;19;19927;-84
2023/08/13 08:23:05;;;;;;;;;;;26.70;52.60;;;25.87;53.47;101502.59;12251354;19;19948;-85
2023/08/13 08:27:09;;;;;;;;;;;26.90;52.70;;;25.78;53.50;101466.06;12246338;19;19919;-84
2023/08/13 08:31:10;;;;;;;;;;;27.00;52.60;;;26.04;53.44;101490.03;12240250;19;19923;-85
2023/08/13 08:35:12;;;;;;;;;;;27.10;51.90;;;26.09;53.54;101481.53;12250421;19;19915;-85
2023/08/13 08:39:13;;;;;;;;;;;27.30;52.00;;;26.36;53.11;101504.44;12248092;19;20375;-84
2023/08/13 08:43:16;;;;;;;;;;;27.40;52.10;;;26.41;53.08;101497.56;12251593;19;20003;-85
2023/08/13 08:47:20;;;;;;;;;;;27.50;51.90;;;26.42;52.89;101498.38;12248333;19;19923;-87
2023/08/13 08:51:22;;;;;;;;;;;27.60;51.90;;;26.52;52.96;101500.91;12250921;19;19919;-86
2023/08/13 08:55:23;;;;;;;;;;;27.60;51.80;;;26.55;53.03;101479.97;12249615;19;19929;-87
2023/08/13 08:59:25;;;;;;;;;;;27.70;51.60;;;26.69;53.10;101489.97;12251887;19;19927;-84
2023/08/13 09:03:27;;;;;;;;;;;27.80;51.20;;;26.74;52.93;101486.78;12248899;19;20385;-84
2023/08/13 09:07:32;;;;;;;;;;;27.90;50.80;;;26.92;52.53;101503.47;12247604;19;19914;-84
2023/08/13 09:11:34;;;;;;;;;;;27.90;50.60;;;26.88;52.66;101488.75;12250608;19;19915;-84
2023/08/13 09:15:43;;;;;;;;;;;28.00;50.10;;;26.88;52.67;101467.31;12247562;19;19926;-84
2023/08/13 09:19:44;;;;;;;;;;;28.10;50.70;;;27.14;52.50;101498.38;12247490;19;19919;-82
2023/08/13 09:23:47;;;;;;;;;;;28.20;50.80;;;27.24;52.79;101496.31;12248878;19;19926;-84
2023/08/13 09:27:49;;;;;;;;;;;28.30;51.00;;;27.36;52.30;101494.94;12244740;19;19923;-84
2023/08/13 09:31:50;;;;;;;;;;;28.40;50.70;;;27.48;52.50;101498.03;12249359;19;19926;-85
2023/08/13 09:35:52;;;;;;;;;;;28.50;50.40;;;27.51;52.48;101500.34;12249222;19;19922;-87
2023/08/13 09:39:53;;;;;;;;;;;28.50;50.30;;;27.57;52.46;101486.25;12248202;19;19975;-87
2023/08/13 09:43:55;;;;;;;;;;;28.60;50.50;;;27.67;52.15;101494.06;12249251;19;19923;-87
2023/08/13 09:47:59;;;;;;;;;;;28.70;48.70;;;27.65;52.24;101469.22;12246870;19;19919;-87
2023/08/13 09:52:02;;;;;;;;;;;28.80;49.90;;;27.85;51.97;101490.28;12247920;19;19968;-87
2023/08/13 09:56:04;;;;;;;;;;;28.80;49.50;;;27.87;51.92;101480.19;12249515;19;19937;-87
2023/08/13 10:00:07;;;;;;;;;;;28.90;49.00;;;27.97;51.87;101483.44;12247794;19;19915;-87
2023/08/13 10:04:09;;;;;;;;;;;29.00;49.40;;;27.99;52.02;101474.19;12249785;19;19919;-87
2023/08/13 10:08:12;;;;;;;;;;;29.10;49.30;;;28.11;51.89;101482.69;12246675;19;19923;-87
2023/08/13 10:12:13;;;;;;;;;;;29.10;49.70;;;28.19;51.45;101477.22;12249931;19;20295;-86
2023/08/13 10:16:16;;;;;;;;;;;29.20;44.40;;;28.30;51.56;101473.28;12249306;19;19924;-87
2023/08/13 10:20:18;;;;;;;;;;;29.30;49.20;;;28.40;51.51;101483.72;12248675;19;19918;-86
2023/08/13 10:24:20;;;;;;;;;;;29.40;48.20;;;28.44;51.31;101469.78;12249437;19;19929;-86
2023/08/13 10:28:23;;;;;;;;;;;29.50;44.50;;;28.39;51.16;101460.56;12245037;19;19957;-85
2023/08/13 10:32:25;;;;;;;;;;;29.50;48.50;;;28.50;51.02;101467.38;12246136;19;19936;-86
2023/08/13 10:36:54;;;;;;;;;;;29.50;47.20;;;28.33;50.90;101435.28;12245501;19;19939;-86
2023/08/13 10:40:59;;;;;;;;;;;29.60;46.80;;;28.59;50.89;101467.09;12245869;19;19914;-86
2023/08/13 10:45:00;;;;;;;;;;;29.60;47.20;;;28.66;50.69;101468.03;12244826;19;19931;-87
2023/08/13 10:49:03;;;;;;;;;;;29.60;45.10;;;28.61;50.42;101462.38;12244898;19;19915;-87
2023/08/13 10:53:04;;;;;;;;;;;29.70;46.50;;;28.74;50.44;101475.16;12244429;19;19952;-86
2023/08/13 10:57:06;;;;;;;;;;;29.70;47.80;;;28.77;50.69;101465.91;12243270;19;19940;-87
2023/08/13 11:01:11;;;;;;;;;;;29.80;47.90;;;28.89;50.35;101473.31;12245784;19;19923;-85
2023/08/13 11:05:13;;;;;;;;;;;29.80;46.10;;;28.89;49.97;101472.44;12247446;19;19992;-84
2023/08/13 11:09:16;;;;;;;;;;;29.90;47.30;;;28.95;49.87;101460.97;12247425;19;20352;-84
2023/08/13 11:13:18;;;;;;;;;;;30.00;47.10;;;29.03;50.05;101460.00;12249565;19;19939;-86
2023/08/13 11:17:20;;;;;;;;;;;30.00;47.40;;;29.07;50.07;101474.78;12241028;19;19926;-86
2023/08/13 11:21:24;;;;;;;;;;;30.10;47.80;;;29.14;49.83;101464.09;12242063;19;19978;-83
2023/08/13 11:25:26;;;;;;;;;;;30.10;46.30;;;29.27;49.88;101475.88;12230553;19;19915;-82
2023/08/13 11:29:28;;;;;;;;;;;30.20;45.10;;;29.30;49.75;101463.84;12239328;19;19923;-82
2023/08/13 11:33:29;;;;;;;;;;;30.30;46.90;;;29.28;49.43;101442.53;12239663;19;19922;-82
2023/08/13 11:37:31;;;;;;;;;;;30.30;46.90;;;29.37;49.67;101450.50;12235962;19;20381;-83
2023/08/13 11:41:33;;;;;;;;;;;30.40;45.80;;;29.32;49.34;101432.22;12235612;19;19923;-82
2023/08/13 11:45:35;;;;;;;;;;;30.40;45.90;;;29.46;49.21;101450.19;12237508;19;19915;-83
2023/08/13 11:49:41;;;;;;;;;;;30.40;47.00;;;29.51;49.07;101439.66;12236833;19;19947;-83
2023/08/13 11:53:45;;;;;;;;;;;30.50;44.20;;;29.63;49.13;101447.25;12236337;19;20255;-82
2023/08/13 11:57:46;;;;;;;;;;;30.60;47.00;;;29.73;49.00;101454.00;12232557;19;19938;-83
2023/08/13 12:01:50;;;;;;;;;;;30.60;47.10;;;29.84;48.91;101455.34;12245956;19;19918;-82
2023/08/13 12:05:52;;;;;;;;;;;30.70;45.20;;;29.89;49.02;101442.09;12241862;19;19930;-83
2023/08/13 12:09:54;;;;;;;;;;;30.80;46.50;;;29.96;48.66;101445.69;12246627;19;19919;-83
2023/08/13 12:13:55;;;;;;;;;;;30.90;46.10;;;29.98;48.67;101440.94;12250873;19;19919;-82
2023/08/13 12:17:57;;;;;;;;;;;30.90;44.40;;;30.01;48.64;101434.34;12249967;19;20298;-83
2023/08/13 12:21:58;;;;;;;;;;;31.00;43.70;;;30.06;48.68;101431.06;12258595;19;19928;-84
2023/08/13 12:26:01;;;;;;;;;;;31.00;45.30;;;30.07;48.52;101430.84;12253227;19;19937;-83
2023/08/13 12:30:03;;;;;;;;;;;31.00;46.40;;;30.08;48.26;101431.66;12257771;19;19919;-83
2023/08/13 12:34:05;;;;;;;;;;;31.00;45.80;;;30.07;48.33;101430.03;12250125;19;19922;-83
2023/08/13 12:38:06;;;;;;;;;;;31.00;46.50;;;30.08;47.91;101420.91;12248583;19;19918;-84
2023/08/13 12:42:09;;;;;;;;;;;31.00;46.80;;;30.09;47.94;101398.34;12251530;19;19919;-84
2023/08/13 12:46:11;;;;;;;;;;;31.00;46.60;;;30.23;47.84;101418.97;12249341;19;19923;-84
2023/08/13 12:50:12;;;;;;;;;;;31.10;44.10;;;30.20;47.68;101412.06;12248830;19;19929;-85
2023/08/13 12:54:13;;;;;;;;;;;31.10;45.40;;;30.23;47.86;101410.88;12253217;19;19934;-83
2023/08/13 12:58:15;;;;;;;;;;;31.10;45.60;;;30.23;47.52;101416.28;12250850;19;19918;-83
2023/08/13 13:02:16;;;;;;;;;;;31.10;45.90;;;30.26;47.65;101405.09;12254731;19;19915;-83
2023/08/13 13:06:18;;;;;;;;;;;31.10;44.50;;;30.30;47.36;101402.81;12245086;19;20350;-83
2023/08/13 13:10:19;;;;;;;;;;;31.10;45.70;;;30.34;47.46;101399.53;12248520;19;19919;-83
2023/08/13 13:14:22;;;;;;;;;;;31.20;45.70;;;30.40;47.11;101406.00;12247305;19;20409;-83
2023/08/13 13:18:23;;;;;;;;;;;31.20;44.20;;;30.37;46.92;101393.75;12243131;19;20306;-83
2023/08/13 13:22:25;;;;;;;;;;;31.30;44.80;;;30.45;47.10;101398.16;12247069;19;19936;-83
2023/08/13 13:26:27;;;;;;;;;;;31.30;45.50;;;30.51;46.86;101394.66;12244827;19;19932;-83
2023/08/13 13:30:28;;;;;;;;;;;31.30;45.70;;;30.54;47.08;101391.56;12252997;19;19918;-84
2023/08/13 13:34:30;;;;;;;;;;;31.40;42.40;;;30.59;46.76;101393.66;12248868;19;19921;-83
2023/08/13 13:38:31;;;;;;;;;;;31.40;45.10;;;30.60;47.03;101385.38;12247547;19;20336;-82
2023/08/13 13:42:33;;;;;;;;;;;31.50;45.30;;;30.67;46.86;101385.38;12246657;19;19933;-82
2023/08/13 13:46:34;;;;;;;;;;;31.50;45.20;;;30.69;46.86;101379.81;12242428;19;19915;-82
2023/08/13 13:50:36;;;;;;;;;;;31.50;41.60;;;30.72;46.73;101382.91;12243687;19;20488;-82
2023/08/13 13:54:37;;;;;;;;;;;31.50;43.50;;;30.73;46.27;101383.75;12245993;19;19944;-82
2023/08/13 13:58:39;;;;;;;;;;;31.60;43.80;;;30.67;46.35;101371.91;12240208;19;19970;-82
2023/08/13 14:02:40;;;;;;;;;;;31.60;44.40;;;30.70;46.45;101368.81;12242527;19;19927;-82
2023/08/13 14:06:42;;;;;;;;;;;31.50;44.80;;;30.75;45.91;101371.72;12238044;19;19956;-82
2023/08/13 14:10:44;;;;;;;;;;;31.60;45.10;;;30.77;46.06;101374.22;12244039;19;19930;-82
2023/08/13 14:14:45;;;;;;;;;;;31.60;45.20;;;30.68;46.26;101351.16;12238032;19;19919;-82
2023/08/13 14:18:47;;;;;;;;;;;31.50;45.10;;;30.78;45.98;101360.53;12240235;19;19923;-82
2023/08/13 14:22:48;;;;;;;;;;;31.60;45.10;;;30.79;45.86;101367.59;12240500;19;19923;-83
2023/08/13 14:26:50;;;;;;;;;;;31.60;45.30;;;30.74;45.96;101347.69;12240899;19;19918;-82
2023/08/13 14:30:52;;;;;;;;;;;31.50;45.30;;;30.67;46.07;101330.63;12242296;19;19923;-82
2023/08/13 14:34:53;;;;;;;;;;;31.60;45.20;;;30.75;45.89;101354.72;12245786;19;20287;-83
2023/08/13 14:38:55;;;;;;;;;;;31.60;44.80;;;30.72;45.85;101355.13;12237221;19;19999;-83
2023/08/13 14:42:57;;;;;;;;;;;31.50;45.00;;;30.69;45.71;101344.75;12240904;19;20295;-83
2023/08/13 14:46:58;;;;;;;;;;;31.40;44.80;;;30.67;45.77;101350.34;12241362;19;19922;-83
2023/08/13 14:50:59;;;;;;;;;;;31.40;44.80;;;30.65;45.76;101345.16;12245258;19;19907;-83
2023/08/13 14:55:01;;;;;;;;;;;31.40;45.00;;;30.62;45.38;101340.19;12244827;19;19929;-83
2023/08/13 14:59:03;;;;;;;;;;;31.40;43.70;;;30.51;45.25;101321.84;12246073;19;20326;-83
2023/08/13 15:03:04;;;;;;;;;;;31.30;43.80;;;30.52;45.18;101320.84;12247463;19;19919;-83
2023/08/13 15:07:05;;;;;;;;;;;31.30;44.80;;;30.54;45.57;101336.81;12243994;19;19918;-82
2023/08/13 15:11:07;;;;;;;;;;;31.20;43.00;;;30.48;45.42;101324.97;12244323;19;19939;-83
2023/08/13 15:15:10;;;;;;;;;;;31.20;42.50;;;30.41;45.03;101308.78;12242840;19;20321;-83
2023/08/13 15:19:11;;;;;;;;;;;31.10;44.10;;;30.34;45.37;101305.22;12243725;19;19974;-83
2023/08/13 15:23:13;;;;;;;;;;;31.10;42.90;;;30.37;45.34;101320.97;12242001;19;19923;-83
2023/08/13 15:27:15;;;;;;;;;;;31.10;44.20;;;30.31;45.02;101311.00;12241887;19;19923;-83
2023/08/13 15:31:17;;;;;;;;;;;31.00;44.60;;;30.39;45.16;101329.69;12241662;19;19970;-83
2023/08/13 15:35:18;;;;;;;;;;;31.00;43.70;;;30.37;44.82;101325.53;12244819;19;19918;-84
2023/08/13 15:39:20;;;;;;;;;;;31.00;44.10;;;30.21;44.85;101299.72;12242909;19;19919;-83
2023/08/13 15:43:22;;;;;;;;;;;31.00;44.00;;;30.26;45.13;101312.66;12243081;19;19923;-83
2023/08/13 15:47:23;;;;;;;;;;;31.00;44.30;;;30.11;44.74;101293.88;12238699;19;19926;-85
2023/08/13 15:51:26;;;;;;;;;;;30.90;44.20;;;30.23;44.90;101311.19;12255720;19;19960;-83
2023/08/13 15:55:27;;;;;;;;;;;30.90;44.20;;;30.24;45.07;101312.84;12253847;19;19926;-85
2023/08/13 15:59:29;;;;;;;;;;;30.90;44.70;;;30.23;44.60;101318.44;12254249;19;20365;-83
2023/08/13 16:03:30;;;;;;;;;;;30.90;44.20;;;30.20;44.78;101314.25;12254361;19;19919;-82
2023/08/13 16:07:32;;;;;;;;;;;30.90;44.10;;;30.19;44.79;101307.19;12251089;19;20389;-83
2023/08/13 16:11:34;;;;;;;;;;;30.80;43.80;;;30.16;44.51;101307.59;12251563;19;19943;-83
2023/08/13 16:15:36;;;;;;;;;;;30.80;44.40;;;30.13;44.44;101299.91;12250786;19;19927;-83
2023/08/13 16:19:38;;;;;;;;;;;30.70;44.50;;;30.07;44.27;101308.78;12251933;19;19914;-84
2023/08/13 16:23:39;;;;;;;;;;;30.80;44.40;;;30.02;44.63;101312.06;12254147;19;19918;-83
2023/08/13 16:27:40;;;;;;;;;;;30.70;44.50;;;29.94;44.63;101302.28;12248568;19;19926;-84
2023/08/13 16:31:42;;;;;;;;;;;30.70;45.00;;;29.82;44.62;101293.13;12253855;19;19923;-84
2023/08/13 16:35:44;;;;;;;;;;;30.60;45.10;;;29.76;44.61;101280.44;12248386;19;19989;-84
2023/08/13 16:39:46;;;;;;;;;;;30.50;45.30;;;29.81;44.68;101287.91;12252119;19;19919;-84
2023/08/13 16:43:48;;;;;;;;;;;30.50;45.40;;;29.68;44.35;101272.53;12253744;19;19922;-85
2023/08/13 16:47:52;;;;;;;;;;;30.40;45.50;;;29.56;44.38;101264.94;12248609;19;19929;-83
2023/08/13 16:51:54;;;;;;;;;;;30.30;45.40;;;29.55;44.46;101273.22;12250618;19;19931;-83
2023/08/13 16:55:55;;;;;;;;;;;30.20;45.40;;;29.36;44.69;101255.91;12249012;19;19919;-84
2023/08/13 16:59:57;;;;;;;;;;;30.10;45.50;;;29.21;44.48;101239.84;12252329;19;19911;-83
2023/08/13 17:03:59;;;;;;;;;;;30.00;45.60;;;29.27;44.74;101251.69;12250833;19;20352;-84
2023/08/13 17:08:00;;;;;;;;;;;29.90;45.50;;;29.33;44.55;101270.59;12246871;19;19922;-83
2023/08/13 17:12:01;;;;;;;;;;;29.90;45.60;;;29.22;44.81;101267.59;12247406;19;19951;-84
2023/08/13 17:16:04;;;;;;;;;;;29.80;45.60;;;29.04;44.94;101250.06;12248139;19;19931;-84
2023/08/13 17:20:07;;;;;;;;;;;29.70;45.60;;;29.04;44.38;101255.44;12248299;19;19910;-84
2023/08/13 17:24:08;;;;;;;;;;;29.70;45.70;;;29.03;44.70;101267.22;12249316;19;19970;-84
2023/08/13 17:28:10;;;;;;;;;;;29.60;45.70;;;28.93;45.04;101260.50;12247689;19;19915;-84
2023/08/13 17:32:14;;;;;;;;;;;29.60;45.80;;;28.89;44.94;101258.19;12252105;19;20261;-84
2023/08/13 17:36:15;;;;;;;;;;;29.50;45.90;;;28.87;44.52;101270.16;12249264;19;19922;-84
2023/08/13 17:40:17;;;;;;;;;;;29.40;45.90;;;28.73;44.85;101255.72;12249986;19;19930;-87
2023/08/13 17:44:18;;;;;;;;;;;29.40;46.00;;;28.70;44.57;101272.25;12251051;19;19919;-89
2023/08/13 17:48:19;;;;;;;;;;;29.30;46.00;;;28.64;44.93;101270.31;12247800;19;19919;-88
2023/08/13 17:52:21;;;;;;;;;;;29.10;45.90;;;28.50;45.24;101266.66;12249603;19;19971;-88
2023/08/13 17:56:22;;;;;;;;;;;29.10;45.90;;;28.44;44.85;101270.94;12247285;19;20250;-88
2023/08/13 18:00:23;;;;;;;;;;;28.90;45.90;;;28.11;44.88;101232.91;12248818;19;20349;-88
2023/08/13 18:04:25;;;;;;;;;;;28.90;46.00;;;28.29;45.18;101278.16;12245667;19;19911;-88
2023/08/13 18:08:27;;;;;;;;;;;28.80;46.00;;;28.18;44.94;101275.97;12244432;19;20494;-88